createdAt,value
2023-03-16T00:02:31.979Z,121.72
2023-03-16T00:05:41.760Z,83.86
2023-03-16T00:08:47.665Z,58.27
2023-03-16T00:11:54.216Z,110.95
2023-03-16T00:15:02.067Z,102.61
2023-03-16T00:18:08.832Z,114.01
2023-03-16T00:21:18.518Z,94.14
2023-03-16T00:24:25.274Z,79.47
2023-03-16T00:27:31.130Z,88.07
2023-03-16T00:30:37.933Z,75.59
2023-03-16T00:33:45.650Z,84.64
2023-03-16T00:36:55.355Z,80.27
2023-03-16T00:40:08.056Z,62.14
2023-03-16T00:43:18.969Z,45.85
2023-03-16T00:46:28.041Z,52.40
2023-03-16T00:49:35.654Z,77.57
2023-03-16T00:52:45.096Z,74.02
2023-03-16T00:55:53.564Z,70.32
2023-03-16T00:59:00.685Z,48.85
2023-03-16T01:02:09.718Z,61.72
2023-03-16T01:05:16.711Z,61.77
2023-03-16T01:08:28.091Z,53.44
2023-03-16T01:11:35.555Z,62.88
2023-03-16T01:14:45.936Z,51.61
2023-03-16T01:17:51.948Z,52.69
2023-03-16T01:20:58.692Z,48.62
2023-03-16T01:24:07.649Z,54.59
2023-03-16T01:27:15.319Z,60.73
2023-03-16T01:30:24.165Z,61.82
2023-03-16T01:33:32.223Z,62.05
2023-03-16T01:36:38.097Z,70.59
2023-03-16T01:39:49.246Z,51.25
2023-03-16T01:43:07.218Z,122.49
2023-03-16T01:46:24.105Z,59.86
2023-03-16T01:49:39.512Z,76.09
2023-03-16T01:52:46.368Z,74.74
2023-03-16T01:55:56.572Z,67.84
2023-03-16T01:59:13.994Z,77.32
2023-03-16T02:02:26.690Z,52.81
2023-03-16T02:05:44.678Z,36.95
2023-03-16T02:08:57.065Z,34.77
2023-03-16T02:12:09.682Z,35.86
2023-03-16T02:15:19.670Z,35.94
2023-03-16T02:18:26.705Z,35.43
2023-03-16T02:21:49.923Z,34.82
2023-03-16T02:24:57.981Z,35.09
2023-03-16T02:28:23.646Z,34.68
2023-03-16T02:31:34.346Z,33.77
2023-03-16T02:34:42.104Z,31.84
2023-03-16T02:37:49.051Z,31.07
2023-03-16T02:41:04.277Z,30.84
2023-03-16T02:44:20.625Z,32.41
2023-03-16T02:47:38.696Z,33.32
2023-03-16T02:50:50.343Z,39.11
2023-03-16T02:53:56.155Z,56.06
2023-03-16T02:57:06.575Z,62.44
2023-03-16T03:00:18.046Z,57.79
2023-03-16T03:03:34.464Z,71.38
2023-03-16T03:06:40.403Z,56.67
2023-03-16T03:09:47.280Z,49.01
2023-03-16T03:12:53.191Z,60.43
2023-03-16T03:16:03.418Z,71.42
2023-03-16T03:19:11.829Z,72.60
2023-03-16T03:22:19.771Z,64.43
2023-03-16T03:25:26.915Z,75.24
2023-03-16T03:28:34.839Z,73.82
2023-03-16T03:31:40.732Z,64.13
2023-03-16T03:34:50.023Z,55.91
2023-03-16T03:37:55.955Z,51.32
2023-03-16T03:41:02.807Z,58.16
2023-03-16T03:44:15.312Z,67.28
2023-03-16T03:47:22.626Z,84.99
2023-03-16T03:50:31.966Z,83.96
2023-03-16T03:54:07.532Z,101.97
2023-03-16T03:57:24.372Z,106.54
2023-03-16T04:00:31.239Z,105.02
2023-03-16T04:03:37.883Z,147.22
2023-03-16T04:06:48.219Z,117.45
2023-03-16T04:09:54.854Z,93.84
2023-03-16T04:13:06.406Z,93.33
2023-03-16T04:16:16.533Z,87.00
2023-03-16T04:19:26.046Z,77.45
2023-03-16T04:22:37.369Z,62.23
2023-03-16T04:25:43.357Z,51.15
2023-03-16T04:28:50.584Z,50.37
2023-03-16T04:31:58.573Z,47.25
2023-03-16T04:35:09.409Z,48.30
2023-03-16T04:38:29.527Z,46.49
2023-03-16T04:41:45.850Z,49.15
2023-03-16T04:44:56.967Z,46.65
2023-03-16T04:48:06.002Z,64.95
2023-03-16T04:51:12.013Z,61.36
2023-03-16T04:54:27.201Z,45.31
2023-03-16T04:57:33.205Z,45.86
2023-03-16T05:00:40.896Z,45.01
2023-03-16T05:03:57.060Z,45.37
2023-03-16T05:07:05.186Z,51.87
2023-03-16T05:10:22.125Z,48.78
2023-03-16T05:13:28.916Z,47.70
2023-03-16T05:16:37.740Z,48.50
2023-03-16T05:19:45.457Z,48.64
2023-03-16T05:22:54.007Z,48.58
2023-03-16T05:26:13.403Z,55.52
2023-03-16T05:29:19.852Z,53.28
2023-03-16T05:32:26.608Z,52.32
2023-03-16T05:35:32.830Z,53.46
2023-03-16T05:38:45.808Z,54.73
2023-03-16T05:42:01.970Z,54.53
2023-03-16T05:45:19.070Z,54.48
2023-03-16T05:48:37.836Z,51.67
2023-03-16T05:51:45.943Z,51.31
2023-03-16T05:54:52.753Z,48.90
2023-03-16T05:58:03.802Z,48.86
2023-03-16T06:01:13.530Z,47.26
2023-03-16T06:04:23.437Z,45.58
2023-03-16T06:07:32.602Z,46.11
2023-03-16T06:10:39.956Z,48.92
2023-03-16T06:13:48.437Z,49.99
2023-03-16T06:16:55.791Z,49.06
2023-03-16T06:20:02.035Z,44.13
2023-03-16T06:23:09.265Z,42.04
2023-03-16T06:26:16.052Z,44.11
2023-03-16T06:29:27.739Z,48.81
2023-03-16T06:32:34.838Z,43.77
2023-03-16T06:35:41.888Z,41.96
2023-03-16T06:38:56.053Z,38.08
2023-03-16T06:42:06.790Z,37.82
2023-03-16T06:45:16.817Z,37.61
2023-03-16T06:48:23.787Z,38.88
2023-03-16T06:51:30.300Z,41.84
2023-03-16T06:54:37.916Z,39.66
2023-03-16T06:57:45.295Z,37.45
2023-03-16T07:00:54.696Z,40.04
2023-03-16T07:04:01.979Z,40.37
2023-03-16T07:07:12.095Z,40.75
2023-03-16T07:10:21.074Z,41.57
2023-03-16T07:13:27.594Z,39.36
2023-03-16T07:16:36.564Z,35.07
2023-03-16T07:19:46.420Z,37.04
2023-03-16T07:22:53.255Z,35.02
2023-03-16T07:26:01.217Z,37.99
2023-03-16T07:29:07.868Z,37.07
2023-03-16T07:32:17.445Z,38.51
2023-03-16T07:35:26.698Z,38.82
2023-03-16T07:38:35.627Z,35.57
2023-03-16T07:41:45.564Z,38.63
2023-03-16T07:44:57.792Z,40.31
2023-03-16T07:48:08.817Z,35.39
2023-03-16T07:51:25.387Z,34.38
2023-03-16T07:54:31.704Z,34.04
2023-03-16T07:57:39.383Z,36.97
2023-03-16T08:00:45.417Z,39.14
2023-03-16T08:03:54.649Z,31.49
2023-03-16T08:07:02.334Z,31.35
2023-03-16T08:10:23.237Z,28.79
2023-03-16T08:13:35.792Z,28.05
2023-03-16T08:16:43.802Z,29.37
2023-03-16T08:19:52.340Z,33.25
2023-03-16T08:23:00.575Z,32.56
2023-03-16T08:26:13.269Z,30.51
2023-03-16T08:29:19.898Z,29.39
2023-03-16T08:32:27.033Z,27.88
2023-03-16T08:35:36.409Z,31.41
2023-03-16T08:38:44.136Z,32.96
2023-03-16T08:41:52.361Z,35.52
2023-03-16T08:45:12.286Z,36.79
2023-03-16T08:48:22.307Z,33.71
2023-03-16T08:51:32.779Z,29.92
2023-03-16T08:54:39.451Z,29.06
2023-03-16T08:57:46.537Z,28.08
2023-03-16T09:00:53.099Z,27.40
2023-03-16T09:04:00.709Z,27.98
2023-03-16T09:07:10.564Z,28.13
2023-03-16T09:10:19.119Z,30.23
2023-03-16T09:13:26.138Z,26.96
2023-03-16T09:16:34.641Z,26.96
2023-03-16T09:19:52.188Z,27.76
2023-03-16T09:23:02.135Z,27.65
2023-03-16T09:26:10.731Z,26.35
2023-03-16T09:29:16.796Z,25.66
2023-03-16T09:32:26.482Z,25.37
2023-03-16T09:35:34.357Z,24.59
2023-03-16T09:38:45.298Z,24.97
2023-03-16T09:42:06.063Z,23.61
2023-03-16T09:45:29.271Z,20.16
2023-03-16T09:48:41.332Z,19.46
2023-03-16T09:52:00.726Z,17.42
2023-03-16T09:55:29.207Z,15.29
2023-03-16T09:58:36.815Z,15.27
2023-03-16T10:02:04.553Z,10.92
2023-03-16T10:05:17.264Z,11.19
2023-03-16T10:08:29.253Z,14.37
2023-03-16T10:11:47.129Z,13.31
2023-03-16T10:15:02.028Z,11.04
2023-03-16T10:18:19.283Z,10.82
2023-03-16T10:21:27.472Z,9.71
2023-03-16T10:24:57.017Z,9.68
2023-03-16T10:28:05.689Z,7.82
2023-03-16T10:31:18.258Z,7.32
2023-03-16T10:34:25.007Z,8.15
2023-03-16T10:37:34.282Z,8.68
2023-03-16T10:40:43.034Z,7.87
2023-03-16T10:43:57.524Z,7.03
2023-03-16T10:47:08.469Z,7.40
2023-03-16T10:50:21.220Z,7.35
2023-03-16T10:53:33.138Z,6.88
2023-03-16T10:56:40.482Z,7.65
2023-03-16T10:59:52.964Z,6.63
2023-03-16T11:03:02.662Z,7.82
2023-03-16T11:06:20.736Z,8.66
2023-03-16T11:09:34.235Z,7.31
2023-03-16T11:12:40.082Z,6.57
2023-03-16T11:15:58.798Z,6.82
2023-03-16T11:19:20.905Z,6.90
2023-03-16T11:22:30.361Z,6.74
2023-03-16T11:25:48.157Z,5.84
2023-03-16T11:29:09.480Z,5.37
2023-03-16T11:32:28.918Z,5.41
2023-03-16T11:35:59.187Z,5.72
2023-03-16T11:39:26.839Z,5.54
2023-03-16T11:42:41.777Z,5.10
2023-03-16T11:46:05.710Z,5.65
2023-03-16T11:49:58.365Z,4.97
2023-03-16T11:53:21.373Z,6.82
2023-03-16T11:56:37.701Z,8.97
2023-03-16T12:00:10.708Z,6.38
2023-03-16T12:04:02.399Z,5.08
2023-03-16T12:07:39.718Z,6.29
2023-03-16T12:10:58.750Z,5.75
2023-03-16T12:14:19.820Z,4.93
2023-03-16T12:17:35.289Z,4.40
2023-03-16T12:20:53.097Z,4.37
2023-03-16T12:24:07.335Z,4.73
2023-03-16T12:27:21.384Z,4.89
2023-03-16T12:30:58.292Z,5.13
2023-03-16T12:34:26.054Z,5.22
2023-03-16T12:37:48.216Z,6.28
2023-03-16T12:41:19.991Z,5.22
2023-03-16T12:44:40.028Z,5.34
2023-03-16T12:48:00.968Z,5.18
2023-03-16T12:51:13.439Z,6.32
2023-03-16T12:54:25.437Z,6.17
2023-03-16T12:57:37.597Z,6.68
2023-03-16T13:00:45.431Z,7.24
2023-03-16T13:04:04.222Z,6.54
2023-03-16T13:07:19.478Z,7.99
2023-03-16T13:10:27.005Z,44.09
2023-03-16T13:13:37.421Z,28.64
2023-03-16T13:16:45.671Z,13.70
2023-03-16T13:20:06.894Z,6.06
2023-03-16T13:23:30.316Z,7.30
2023-03-16T13:26:45.541Z,7.37
2023-03-16T13:30:05.474Z,5.75
2023-03-16T13:33:25.827Z,5.86
2023-03-16T13:36:35.095Z,5.67
2023-03-16T13:39:40.965Z,5.57
2023-03-16T13:42:53.312Z,5.63
2023-03-16T13:46:03.692Z,5.94
2023-03-16T13:49:10.382Z,6.69
2023-03-16T13:52:28.924Z,6.66
2023-03-16T13:55:41.750Z,6.24
2023-03-16T13:58:52.867Z,5.71
2023-03-16T14:02:04.604Z,4.48
2023-03-16T14:05:15.908Z,5.32
2023-03-16T14:08:26.964Z,5.69
2023-03-16T14:11:33.742Z,7.12
2023-03-16T14:14:43.901Z,5.29
2023-03-16T14:17:52.600Z,5.24
2023-03-16T14:21:00.339Z,5.30
2023-03-16T14:24:09.604Z,6.22
2023-03-16T14:27:33.003Z,5.81
2023-03-16T14:30:38.855Z,4.99
2023-03-16T14:33:48.331Z,4.02
2023-03-16T14:36:54.290Z,5.62
2023-03-16T14:40:09.186Z,6.97
2023-03-16T14:43:15.825Z,5.57
2023-03-16T14:46:33.629Z,4.32
2023-03-16T14:49:43.609Z,4.48
2023-03-16T14:52:51.989Z,4.59
2023-03-16T14:56:01.313Z,4.68
2023-03-16T14:59:09.169Z,4.50
2023-03-16T15:02:23.155Z,5.46
2023-03-16T15:05:40.740Z,5.68
2023-03-16T15:08:51.073Z,6.25
2023-03-16T15:11:58.325Z,5.93
2023-03-16T15:15:19.599Z,7.24
2023-03-16T15:18:26.180Z,8.26
2023-03-16T15:21:35.141Z,7.99
2023-03-16T15:24:42.652Z,7.89
2023-03-16T15:27:49.287Z,49.52
2023-03-16T15:30:59.726Z,23.45
2023-03-16T15:34:07.298Z,28.13
2023-03-16T15:37:26.324Z,57.26
2023-03-16T15:40:33.911Z,28.73
2023-03-16T15:43:40.610Z,149.96
2023-03-16T15:46:46.753Z,227.90
2023-03-16T15:49:53.301Z,228.46
2023-03-16T15:53:13.251Z,11.72
2023-03-16T15:56:30.096Z,13.42
2023-03-16T15:59:40.166Z,8.51
2023-03-16T16:02:46.748Z,9.22
2023-03-16T16:05:53.402Z,9.07
2023-03-16T16:09:02.910Z,9.21
2023-03-16T16:12:13.057Z,10.80
2023-03-16T16:15:25.808Z,11.60
2023-03-16T16:18:37.580Z,12.80
2023-03-16T16:21:44.909Z,13.46
2023-03-16T16:24:53.390Z,17.75
2023-03-16T16:28:00.452Z,16.69
2023-03-16T16:31:17.158Z,12.89
2023-03-16T16:34:27.314Z,10.87
2023-03-16T16:37:33.449Z,13.16
2023-03-16T16:40:46.303Z,14.67
2023-03-16T16:43:56.544Z,24.33
2023-03-16T16:47:03.649Z,18.89
2023-03-16T16:50:18.757Z,16.17
2023-03-16T16:53:25.691Z,15.72
2023-03-16T16:56:39.027Z,14.19
2023-03-16T16:59:47.203Z,16.14
2023-03-16T17:02:58.903Z,15.69
2023-03-16T17:06:05.514Z,16.72
2023-03-16T17:09:12.508Z,20.25
2023-03-16T17:12:26.324Z,22.07
2023-03-16T17:15:35.224Z,25.13
2023-03-16T17:18:42.349Z,29.12
2023-03-16T17:21:49.243Z,31.49
2023-03-16T17:24:56.434Z,46.42
2023-03-16T17:28:05.812Z,45.28
2023-03-16T17:31:15.703Z,103.97
2023-03-16T17:34:26.058Z,42.42
2023-03-16T17:37:32.704Z,36.20
2023-03-16T17:40:38.805Z,34.19
2023-03-16T17:43:51.497Z,33.41
2023-03-16T17:46:57.754Z,43.74
2023-03-16T17:50:04.549Z,32.49
2023-03-16T17:53:10.334Z,27.58
2023-03-16T17:56:27.223Z,29.33
2023-03-16T17:59:36.677Z,29.98
2023-03-16T18:02:56.769Z,41.11
2023-03-16T18:06:02.729Z,34.21
2023-03-16T18:09:09.856Z,45.84
2023-03-16T18:12:15.753Z,37.11
2023-03-16T18:15:31.286Z,41.21
2023-03-16T18:18:41.931Z,42.16
2023-03-16T18:21:48.578Z,49.14
2023-03-16T18:24:58.114Z,54.36
2023-03-16T18:28:05.394Z,51.43
2023-03-16T18:31:24.340Z,78.34
2023-03-16T18:34:37.793Z,90.58
2023-03-16T18:37:44.914Z,59.77
2023-03-16T18:40:51.617Z,55.56
2023-03-16T18:44:01.156Z,55.27
2023-03-16T18:47:22.167Z,56.99
2023-03-16T18:50:32.008Z,55.61
2023-03-16T18:53:38.998Z,59.49
2023-03-16T18:56:44.753Z,55.17
2023-03-16T18:59:52.412Z,61.37
2023-03-16T19:03:09.350Z,60.53
2023-03-16T19:06:21.494Z,69.07
2023-03-16T19:09:32.223Z,73.34
2023-03-16T19:12:39.242Z,70.38
2023-03-16T19:15:45.252Z,65.50
2023-03-16T19:18:54.608Z,71.63
2023-03-16T19:22:13.102Z,70.99
2023-03-16T19:25:48.612Z,65.81
2023-03-16T19:28:56.477Z,69.03
2023-03-16T19:32:04.165Z,75.50
2023-03-16T19:35:21.098Z,69.73
2023-03-16T19:38:31.873Z,65.79
2023-03-16T19:41:44.079Z,62.89
2023-03-16T19:44:53.928Z,62.91
2023-03-16T19:47:59.862Z,66.94
2023-03-16T19:51:09.394Z,61.40
2023-03-16T19:54:25.918Z,61.25
2023-03-16T19:57:34.081Z,60.25
2023-03-16T20:00:43.378Z,65.31
2023-03-16T20:03:54.793Z,67.27
2023-03-16T20:07:03.324Z,72.58
2023-03-16T20:10:11.911Z,70.20
2023-03-16T20:13:31.890Z,72.81
2023-03-16T20:16:39.556Z,81.68
2023-03-16T20:19:48.639Z,80.51
2023-03-16T20:23:02.503Z,78.91
2023-03-16T20:26:17.905Z,73.60
2023-03-16T20:29:32.894Z,73.69
2023-03-16T20:32:40.120Z,76.15
2023-03-16T20:35:47.529Z,107.08
2023-03-16T20:38:56.170Z,101.92
2023-03-16T20:42:16.768Z,104.50
2023-03-16T20:45:33.797Z,115.58
2023-03-16T20:48:43.384Z,114.37
2023-03-16T20:51:49.692Z,137.44
2023-03-16T20:54:58.915Z,137.24
2023-03-16T20:58:05.718Z,106.81
2023-03-16T21:01:18.899Z,103.97
2023-03-16T21:04:31.258Z,109.02
2023-03-16T21:07:37.949Z,104.16
2023-03-16T21:10:49.438Z,104.73
2023-03-16T21:13:57.571Z,103.40
2023-03-16T21:17:06.522Z,99.29
2023-03-16T21:20:20.744Z,99.67
2023-03-16T21:23:27.644Z,104.34
2023-03-16T21:26:37.967Z,124.05
2023-03-16T21:29:44.016Z,113.99
2023-03-16T21:32:50.771Z,113.97
2023-03-16T21:35:57.039Z,116.84
2023-03-16T21:39:04.113Z,124.41
2023-03-16T21:42:12.828Z,130.23
2023-03-16T21:45:20.418Z,136.51
2023-03-16T21:48:32.597Z,140.22
2023-03-16T21:51:40.259Z,133.30
2023-03-16T21:54:47.738Z,133.45
2023-03-16T21:58:02.950Z,135.33
2023-03-16T22:01:09.712Z,134.82
2023-03-16T22:04:20.778Z,132.33
2023-03-16T22:07:28.469Z,135.85
2023-03-16T22:10:35.513Z,130.79
2023-03-16T22:13:44.442Z,122.86
2023-03-16T22:16:52.154Z,122.78
2023-03-16T22:19:58.209Z,120.58
2023-03-16T22:23:07.899Z,119.38
2023-03-16T22:26:22.638Z,118.24
2023-03-16T22:29:33.954Z,115.54
2023-03-16T22:32:39.911Z,117.39
2023-03-16T22:35:47.475Z,116.45
2023-03-16T22:39:02.386Z,123.82
2023-03-16T22:42:31.206Z,121.99
2023-03-16T22:45:39.968Z,115.37
2023-03-16T22:48:46.627Z,115.60
2023-03-16T22:51:58.408Z,113.35
2023-03-16T22:55:10.129Z,114.24
2023-03-16T22:58:30.921Z,118.16
2023-03-16T23:01:45.049Z,118.22
2023-03-16T23:04:51.008Z,121.97
2023-03-16T23:07:58.367Z,115.46
2023-03-16T23:11:04.445Z,109.97
2023-03-16T23:14:17.621Z,110.35
2023-03-16T23:17:26.082Z,111.75
2023-03-16T23:20:35.276Z,107.24
2023-03-16T23:23:44.372Z,102.62
2023-03-16T23:26:54.123Z,99.98
2023-03-16T23:30:00.044Z,106.28
2023-03-16T23:33:09.364Z,116.64
2023-03-16T23:36:18.559Z,104.94
2023-03-16T23:39:25.861Z,106.83
2023-03-16T23:42:31.793Z,113.05
2023-03-16T23:45:44.625Z,104.32
2023-03-16T23:48:58.341Z,101.07
2023-03-16T23:52:05.548Z,100.23
2023-03-16T23:55:16.365Z,102.35
2023-03-16T23:58:23.064Z,105.45
